createdAt,value
2023-03-15T00:01:34.433Z,0.79
2023-03-15T00:04:05.971Z,0.66
2023-03-15T00:06:36.508Z,0.62
2023-03-15T00:09:07.342Z,0.68
2023-03-15T00:11:39.728Z,0.65
2023-03-15T00:14:09.561Z,0.66
2023-03-15T00:16:39.887Z,0.71
2023-03-15T00:19:09.683Z,0.75
2023-03-15T00:21:40.287Z,0.80
2023-03-15T00:24:10.482Z,0.88
2023-03-15T00:26:42.875Z,0.86
2023-03-15T00:29:12.661Z,1.01
2023-03-15T00:31:42.452Z,0.94
2023-03-15T00:34:13.890Z,1.00
2023-03-15T00:36:44.655Z,0.89
2023-03-15T00:39:15.404Z,0.78
2023-03-15T00:41:48.437Z,0.69
2023-03-15T00:44:18.368Z,0.65
2023-03-15T00:46:48.141Z,0.63
2023-03-15T00:49:18.349Z,0.64
2023-03-15T00:51:48.137Z,0.67
2023-03-15T00:54:17.884Z,0.67
2023-03-15T00:56:50.312Z,0.53
2023-03-15T00:59:22.095Z,0.49
2023-03-15T01:01:52.849Z,0.51
2023-03-15T01:04:25.236Z,0.59
2023-03-15T01:06:55.208Z,0.67
2023-03-15T01:09:25.004Z,0.69
2023-03-15T01:11:57.362Z,0.76
2023-03-15T01:14:27.410Z,0.80
2023-03-15T01:16:57.244Z,0.76
2023-03-15T01:19:27.022Z,0.74
2023-03-15T01:21:56.935Z,0.75
2023-03-15T01:24:26.666Z,0.73
2023-03-15T01:26:59.055Z,0.65
2023-03-15T01:29:28.833Z,0.54
2023-03-15T01:31:58.630Z,0.45
2023-03-15T01:34:28.494Z,0.58
2023-03-15T01:36:58.363Z,0.46
2023-03-15T01:39:34.643Z,0.32
2023-03-15T01:42:07.674Z,0.19
2023-03-15T01:44:56.479Z,0.06
2023-03-15T01:47:27.676Z,-0.02
2023-03-15T01:50:07.580Z,-0.16
2023-03-15T01:52:40.724Z,-0.25
2023-03-15T01:55:17.753Z,-0.25
2023-03-15T01:58:06.861Z,-0.29
2023-03-15T02:00:40.154Z,-0.28
2023-03-15T02:03:21.198Z,-0.47
2023-03-15T02:05:57.296Z,-0.42
2023-03-15T02:08:44.590Z,-0.54
2023-03-15T02:11:14.795Z,-0.52
2023-03-15T02:13:51.484Z,-0.48
2023-03-15T02:16:23.264Z,-0.42
2023-03-15T02:18:59.477Z,-0.41
2023-03-15T02:21:39.654Z,-0.31
2023-03-15T02:24:21.895Z,-0.33
2023-03-15T02:26:56.415Z,-0.42
2023-03-15T02:29:32.918Z,-0.50
2023-03-15T02:32:04.612Z,-0.62
2023-03-15T02:34:34.690Z,-0.69
2023-03-15T02:37:05.916Z,-0.76
2023-03-15T02:39:35.740Z,-0.80
2023-03-15T02:42:05.684Z,-0.77
2023-03-15T02:44:40.374Z,-0.84
2023-03-15T02:47:15.948Z,-0.89
2023-03-15T02:49:49.461Z,-0.93
2023-03-15T02:52:20.435Z,-0.90
2023-03-15T02:54:50.238Z,-0.85
2023-03-15T02:57:21.761Z,-0.88
2023-03-15T02:59:55.719Z,-1.05
2023-03-15T03:02:26.195Z,-1.09
2023-03-15T03:04:56.031Z,-1.19
2023-03-15T03:07:25.828Z,-1.10
2023-03-15T03:10:01.120Z,-1.12
2023-03-15T03:12:34.700Z,-1.12
2023-03-15T03:15:08.304Z,-1.12
2023-03-15T03:17:38.646Z,-1.12
2023-03-15T03:20:10.873Z,-1.19
2023-03-15T03:22:47.065Z,-1.19
2023-03-15T03:25:16.918Z,-1.21
2023-03-15T03:27:46.925Z,-1.19
2023-03-15T03:30:20.037Z,-1.27
2023-03-15T03:32:54.171Z,-1.21
2023-03-15T03:35:24.488Z,-1.26
2023-03-15T03:37:54.686Z,-1.35
2023-03-15T03:40:30.525Z,-1.43
2023-03-15T03:43:00.656Z,-1.40
2023-03-15T03:45:33.273Z,-1.36
2023-03-15T03:48:03.689Z,-1.42
2023-03-15T03:50:35.692Z,-1.41
2023-03-15T03:53:05.435Z,-1.49
2023-03-15T03:55:37.685Z,-1.39
2023-03-15T03:58:07.469Z,-1.31
2023-03-15T04:01:00.157Z,-1.40
2023-03-15T04:03:33.739Z,-1.51
2023-03-15T04:06:14.004Z,-1.45
2023-03-15T04:08:47.350Z,-1.33
2023-03-15T04:11:26.744Z,-1.39
2023-03-15T04:14:02.772Z,-1.48
2023-03-15T04:16:35.575Z,-1.42
2023-03-15T04:19:08.810Z,-1.54
2023-03-15T04:21:39.363Z,-1.55
2023-03-15T04:24:29.388Z,-1.57
2023-03-15T04:27:14.669Z,-1.52
2023-03-15T04:30:05.960Z,-1.63
2023-03-15T04:32:59.287Z,-1.67
2023-03-15T04:35:47.742Z,-1.72
2023-03-15T04:38:36.387Z,-1.72
2023-03-15T04:41:21.437Z,-1.76
2023-03-15T04:44:07.179Z,-1.70
2023-03-15T04:46:58.271Z,-1.87
2023-03-15T04:49:46.095Z,-1.27
2023-03-15T04:52:37.886Z,-1.36
2023-03-15T04:55:08.469Z,-1.41
2023-03-15T04:57:58.376Z,-1.59
2023-03-15T05:00:40.017Z,-1.63
2023-03-15T05:03:25.807Z,-1.68
2023-03-15T05:06:08.074Z,-1.71
2023-03-15T05:08:48.007Z,-1.85
2023-03-15T05:11:27.696Z,-1.82
2023-03-15T05:14:16.819Z,-1.89
2023-03-15T05:17:07.192Z,-1.86
2023-03-15T05:19:57.320Z,-1.89
2023-03-15T05:22:48.069Z,-1.75
2023-03-15T05:25:34.052Z,-1.87
2023-03-15T05:28:22.590Z,-1.89
2023-03-15T05:31:10.663Z,-1.86
2023-03-15T05:33:58.907Z,-1.84
2023-03-15T05:36:35.444Z,-1.87
2023-03-15T05:39:26.657Z,-1.99
2023-03-15T05:41:59.039Z,-2.09
2023-03-15T05:45:03.936Z,-2.13
2023-03-15T05:47:57.596Z,-2.17
2023-03-15T05:50:56.567Z,-2.10
2023-03-15T05:53:36.307Z,-2.03
2023-03-15T05:56:37.911Z,-1.95
2023-03-15T05:59:21.816Z,-1.69
2023-03-15T06:02:12.027Z,-1.66
2023-03-15T06:04:53.435Z,-1.63
2023-03-15T06:07:27.860Z,-1.62
2023-03-15T06:09:57.697Z,-1.57
2023-03-15T06:12:31.286Z,-1.60
2023-03-15T06:15:01.036Z,-1.54
2023-03-15T06:17:31.650Z,-1.51
2023-03-15T06:20:01.424Z,-1.41
2023-03-15T06:22:31.250Z,-1.32
2023-03-15T06:25:05.297Z,-1.14
2023-03-15T06:27:37.940Z,-0.95
2023-03-15T06:30:09.327Z,-0.82
2023-03-15T06:32:39.395Z,-0.10
2023-03-15T06:35:10.221Z,0.51
2023-03-15T06:37:40.058Z,1.18
2023-03-15T06:40:11.951Z,1.43
2023-03-15T06:42:44.461Z,1.95
2023-03-15T06:45:16.470Z,2.55
2023-03-15T06:47:47.234Z,3.13
2023-03-15T06:50:18.518Z,3.86
2023-03-15T06:52:48.284Z,4.43
2023-03-15T06:55:18.817Z,4.44
2023-03-15T06:57:51.909Z,4.81
2023-03-15T07:00:22.656Z,5.21
2023-03-15T07:02:52.559Z,5.26
2023-03-15T07:05:22.403Z,5.51
2023-03-15T07:07:52.318Z,5.69
2023-03-15T07:10:22.464Z,5.99
2023-03-15T07:12:54.847Z,6.92
2023-03-15T07:15:24.775Z,6.98
2023-03-15T07:17:54.552Z,6.49
2023-03-15T07:20:24.572Z,6.46
2023-03-15T07:22:54.348Z,6.92
2023-03-15T07:25:25.973Z,8.04
2023-03-15T07:27:58.383Z,8.26
2023-03-15T07:30:28.591Z,8.68
2023-03-15T07:32:58.889Z,8.92
2023-03-15T07:35:29.211Z,9.42
2023-03-15T07:37:59.387Z,9.02
2023-03-15T07:40:29.687Z,9.23
2023-03-15T07:43:02.471Z,6.91
2023-03-15T07:45:34.057Z,7.66
2023-03-15T07:48:04.180Z,7.08
2023-03-15T07:50:34.309Z,7.59
2023-03-15T07:53:05.613Z,8.29
2023-03-15T07:55:35.897Z,7.12
2023-03-15T07:58:08.731Z,7.71
2023-03-15T08:00:38.894Z,7.14
2023-03-15T08:03:09.160Z,8.28
2023-03-15T08:05:40.072Z,8.99
2023-03-15T08:08:10.315Z,9.03
2023-03-15T08:10:40.459Z,9.19
2023-03-15T08:13:13.449Z,9.97
2023-03-15T08:15:43.725Z,9.56
2023-03-15T08:18:13.846Z,9.80
2023-03-15T08:20:43.979Z,9.57
2023-03-15T08:23:16.716Z,9.56
2023-03-15T08:25:47.406Z,8.81
2023-03-15T08:28:20.313Z,9.27
2023-03-15T08:30:50.501Z,9.23
2023-03-15T08:33:22.392Z,10.31
2023-03-15T08:35:54.883Z,10.38
2023-03-15T08:38:26.215Z,10.60
2023-03-15T08:40:58.701Z,10.92
2023-03-15T08:43:31.402Z,10.55
2023-03-15T08:46:02.114Z,10.16
2023-03-15T08:48:32.768Z,10.14
2023-03-15T08:51:05.237Z,9.26
2023-03-15T08:53:35.606Z,9.09
2023-03-15T08:56:05.921Z,9.30
2023-03-15T08:58:38.690Z,9.53
2023-03-15T09:01:08.899Z,10.41
2023-03-15T09:03:39.171Z,11.18
2023-03-15T09:06:09.595Z,12.14
2023-03-15T09:08:39.748Z,12.38
2023-03-15T09:11:10.605Z,12.44
2023-03-15T09:13:43.340Z,11.41
2023-03-15T09:16:13.526Z,9.74
2023-03-15T09:18:44.189Z,8.25
2023-03-15T09:21:14.452Z,8.29
2023-03-15T09:23:44.640Z,7.83
2023-03-15T09:26:15.323Z,7.52
2023-03-15T09:28:48.056Z,7.45
2023-03-15T09:31:18.266Z,7.35
2023-03-15T09:33:49.819Z,7.49
2023-03-15T09:36:19.973Z,7.26
2023-03-15T09:38:50.524Z,7.10
2023-03-15T09:41:23.529Z,7.25
2023-03-15T09:44:12.008Z,7.26
2023-03-15T09:46:44.683Z,7.05
2023-03-15T09:49:17.241Z,6.97
2023-03-15T09:51:51.040Z,7.14
2023-03-15T09:54:23.789Z,7.14
2023-03-15T09:56:57.787Z,6.92
2023-03-15T09:59:32.796Z,7.11
2023-03-15T10:02:04.466Z,7.25
2023-03-15T10:04:37.395Z,6.86
2023-03-15T10:07:09.772Z,7.06
2023-03-15T10:09:40.066Z,7.20
2023-03-15T10:12:13.024Z,7.37
2023-03-15T10:14:55.303Z,7.37
2023-03-15T10:17:31.087Z,7.36
2023-03-15T10:20:02.278Z,7.59
2023-03-15T10:22:36.389Z,7.33
2023-03-15T10:25:14.240Z,7.37
2023-03-15T10:27:46.021Z,7.43
2023-03-15T10:30:20.510Z,7.12
2023-03-15T10:32:53.639Z,7.45
2023-03-15T10:35:24.259Z,7.94
2023-03-15T10:37:54.825Z,8.15
2023-03-15T10:40:40.000Z,8.01
2023-03-15T10:43:16.100Z,8.18
2023-03-15T10:45:49.866Z,8.40
2023-03-15T10:48:21.023Z,8.33
2023-03-15T10:50:53.176Z,8.04
2023-03-15T10:53:25.657Z,8.37
2023-03-15T10:56:01.850Z,9.01
2023-03-15T10:58:34.672Z,8.68
2023-03-15T11:01:09.666Z,7.87
2023-03-15T11:03:40.336Z,8.40
2023-03-15T11:06:21.497Z,8.76
2023-03-15T11:08:51.693Z,8.72
2023-03-15T11:11:21.876Z,9.13
2023-03-15T11:14:01.232Z,10.12
2023-03-15T11:16:36.421Z,10.07
2023-03-15T11:19:13.457Z,10.49
2023-03-15T11:21:45.214Z,10.11
2023-03-15T11:24:27.432Z,9.08
2023-03-15T11:27:01.568Z,8.41
2023-03-15T11:29:32.896Z,8.64
2023-03-15T11:32:13.081Z,8.95
2023-03-15T11:34:45.194Z,8.40
2023-03-15T11:37:18.015Z,7.66
2023-03-15T11:39:53.702Z,7.62
2023-03-15T11:42:30.488Z,7.76
2023-03-15T11:45:04.124Z,7.33
2023-03-15T11:47:50.499Z,7.40
2023-03-15T11:50:20.889Z,7.34
2023-03-15T11:52:52.162Z,7.30
2023-03-15T11:55:23.526Z,7.50
2023-03-15T11:57:54.191Z,7.23
2023-03-15T12:00:49.180Z,7.45
2023-03-15T12:03:33.626Z,7.51
2023-03-15T12:06:07.025Z,7.37
2023-03-15T12:08:44.694Z,7.14
2023-03-15T12:11:15.163Z,7.04
2023-03-15T12:13:53.851Z,6.82
2023-03-15T12:16:24.740Z,6.88
2023-03-15T12:18:59.893Z,6.84
2023-03-15T12:21:35.045Z,6.72
2023-03-15T12:24:07.355Z,6.93
2023-03-15T12:26:42.937Z,6.97
2023-03-15T12:29:18.517Z,7.10
2023-03-15T12:31:53.307Z,7.32
2023-03-15T12:34:31.722Z,7.62
2023-03-15T12:37:04.158Z,8.21
2023-03-15T12:39:42.113Z,8.58
2023-03-15T12:42:16.588Z,8.89
2023-03-15T12:44:47.121Z,8.59
2023-03-15T12:47:17.339Z,8.38
2023-03-15T12:49:50.353Z,8.75
2023-03-15T12:52:44.484Z,8.83
2023-03-15T12:55:17.662Z,8.75
2023-03-15T12:57:53.992Z,8.32
2023-03-15T13:00:25.405Z,7.88
2023-03-15T13:03:02.193Z,7.66
2023-03-15T13:05:38.261Z,7.73
2023-03-15T13:08:10.580Z,7.89
2023-03-15T13:10:54.187Z,7.62
2023-03-15T13:13:45.406Z,7.28
2023-03-15T13:16:22.398Z,6.86
2023-03-15T13:18:57.629Z,7.03
2023-03-15T13:21:34.285Z,6.96
2023-03-15T13:24:05.263Z,6.19
2023-03-15T13:26:44.265Z,5.98
2023-03-15T13:29:17.795Z,6.29
2023-03-15T13:31:48.841Z,6.48
2023-03-15T13:34:19.745Z,6.60
2023-03-15T13:36:57.345Z,7.06
2023-03-15T13:39:28.472Z,7.24
2023-03-15T13:42:02.300Z,7.07
2023-03-15T13:44:33.023Z,7.33
2023-03-15T13:47:03.485Z,7.72
2023-03-15T13:49:34.328Z,7.39
2023-03-15T13:52:14.187Z,7.27
2023-03-15T13:54:45.746Z,7.15
2023-03-15T13:57:17.108Z,7.24
2023-03-15T13:59:48.451Z,7.19
2023-03-15T14:02:20.025Z,6.84
2023-03-15T14:04:54.014Z,6.38
2023-03-15T14:07:32.186Z,6.20
2023-03-15T14:10:17.463Z,6.09
2023-03-15T14:12:47.686Z,5.98
2023-03-15T14:15:20.003Z,5.94
2023-03-15T14:17:55.556Z,5.71
2023-03-15T14:20:29.652Z,5.62
2023-03-15T14:23:03.570Z,5.81
2023-03-15T14:25:37.159Z,5.98
2023-03-15T14:28:08.159Z,5.99
2023-03-15T14:30:39.437Z,6.42
2023-03-15T14:33:10.273Z,6.78
2023-03-15T14:35:46.196Z,6.46
2023-03-15T14:38:24.692Z,6.12
2023-03-15T14:40:55.721Z,6.09
2023-03-15T14:43:25.882Z,6.24
2023-03-15T14:45:56.914Z,6.50
2023-03-15T14:48:31.990Z,6.71
2023-03-15T14:51:02.193Z,6.77
2023-03-15T14:53:37.128Z,6.98
2023-03-15T14:56:07.560Z,7.21
2023-03-15T14:58:37.658Z,7.27
2023-03-15T15:01:08.147Z,6.95
2023-03-15T15:03:41.266Z,6.58
2023-03-15T15:06:13.469Z,6.29
2023-03-15T15:08:47.860Z,6.06
2023-03-15T15:11:18.199Z,5.94
2023-03-15T15:13:48.327Z,5.76
2023-03-15T15:16:18.673Z,5.31
2023-03-15T15:18:48.847Z,4.59
2023-03-15T15:21:22.322Z,4.23
2023-03-15T15:23:58.924Z,3.77
2023-03-15T15:26:30.007Z,3.42
2023-03-15T15:29:00.885Z,3.26
2023-03-15T15:31:33.720Z,3.22
2023-03-15T15:34:05.328Z,3.04
2023-03-15T15:36:36.846Z,2.84
2023-03-15T15:39:13.388Z,2.81
2023-03-15T15:41:43.595Z,2.69
2023-03-15T15:44:17.090Z,2.47
2023-03-15T15:46:47.247Z,2.35
2023-03-15T15:49:18.215Z,2.42
2023-03-15T15:51:50.196Z,2.49
2023-03-15T15:54:25.314Z,2.46
2023-03-15T15:56:56.409Z,2.43
2023-03-15T15:59:27.250Z,2.51
2023-03-15T16:02:02.443Z,2.41
2023-03-15T16:04:33.071Z,2.42
2023-03-15T16:07:04.978Z,2.40
2023-03-15T16:09:39.957Z,2.50
2023-03-15T16:12:14.998Z,2.57
2023-03-15T16:14:45.385Z,3.01
2023-03-15T16:17:17.486Z,2.99
2023-03-15T16:19:47.623Z,3.18
2023-03-15T16:22:18.027Z,3.10
2023-03-15T16:24:52.693Z,2.90
2023-03-15T16:27:25.982Z,2.76
2023-03-15T16:29:56.763Z,2.78
2023-03-15T16:32:41.408Z,2.89
2023-03-15T16:35:15.725Z,2.88
2023-03-15T16:37:46.559Z,2.88
2023-03-15T16:40:21.651Z,2.88
2023-03-15T16:42:52.076Z,2.91
2023-03-15T16:45:22.478Z,2.89
2023-03-15T16:47:52.821Z,2.84
2023-03-15T16:50:23.274Z,2.88
2023-03-15T16:52:54.938Z,2.87
2023-03-15T16:55:28.428Z,2.82
2023-03-15T16:57:59.770Z,2.94
2023-03-15T17:00:31.568Z,3.02
2023-03-15T17:03:03.294Z,3.10
2023-03-15T17:05:34.571Z,3.15
2023-03-15T17:08:04.806Z,3.13
2023-03-15T17:10:37.542Z,3.01
2023-03-15T17:13:07.989Z,2.97
2023-03-15T17:15:38.164Z,2.93
2023-03-15T17:18:09.102Z,2.91
2023-03-15T17:20:39.948Z,2.84
2023-03-15T17:23:10.220Z,2.75
2023-03-15T17:25:42.980Z,2.71
2023-03-15T17:28:13.337Z,2.66
2023-03-15T17:30:43.592Z,2.54
2023-03-15T17:33:14.345Z,2.40
2023-03-15T17:35:46.456Z,2.34
2023-03-15T17:38:21.976Z,2.20
2023-03-15T17:40:55.227Z,2.06
2023-03-15T17:43:26.784Z,1.88
2023-03-15T17:45:56.911Z,1.83
2023-03-15T17:48:27.109Z,1.68
2023-03-15T17:50:57.283Z,1.54
2023-03-15T17:53:27.817Z,1.45
2023-03-15T17:56:00.527Z,1.31
2023-03-15T17:58:31.232Z,1.72
2023-03-15T18:01:01.864Z,1.85
2023-03-15T18:03:32.844Z,1.85
2023-03-15T18:09:34.149Z,1.65
2023-03-15T18:16:23.044Z,1.35
2023-03-15T18:22:40.434Z,1.17
2023-03-15T18:25:13.632Z,1.04
2023-03-15T18:27:46.998Z,0.94
2023-03-15T18:30:18.850Z,0.90
2023-03-15T18:32:49.602Z,0.94
2023-03-15T18:35:25.858Z,1.02
2023-03-15T18:37:57.911Z,0.99
2023-03-15T18:40:29.795Z,0.92
2023-03-15T18:43:05.449Z,0.92
2023-03-15T18:45:36.870Z,0.89
2023-03-15T18:48:07.356Z,0.86
2023-03-15T18:50:38.377Z,0.83
2023-03-15T18:53:09.049Z,0.84
2023-03-15T18:55:39.670Z,0.72
2023-03-15T18:58:13.297Z,0.73
2023-03-15T19:00:44.778Z,0.64
2023-03-15T19:03:15.174Z,0.69
2023-03-15T19:05:45.847Z,0.58
2023-03-15T19:08:16.162Z,0.49
2023-03-15T19:10:47.341Z,0.42
2023-03-15T19:13:20.448Z,0.46
2023-03-15T19:15:51.105Z,0.34
2023-03-15T19:18:22.127Z,0.36
2023-03-15T19:20:54.776Z,0.29
2023-03-15T19:23:25.248Z,0.22
2023-03-15T19:25:56.016Z,0.14
2023-03-15T19:28:30.693Z,0.08
2023-03-15T19:31:01.332Z,0.04
2023-03-15T19:33:31.789Z,0.06
2023-03-15T19:36:02.751Z,0.10
2023-03-15T19:38:33.455Z,0.05
2023-03-15T19:41:05.383Z,0.05
2023-03-15T19:43:42.679Z,0.02
2023-03-15T19:46:14.024Z,-0.07
2023-03-15T19:48:44.920Z,0.01
2023-03-15T19:51:16.692Z,0.06
2023-03-15T19:53:47.108Z,0.15
2023-03-15T19:56:18.129Z,0.16
2023-03-15T19:58:51.422Z,0.13
2023-03-15T20:01:21.780Z,0.05
2023-03-15T20:03:52.163Z,-0.06
2023-03-15T20:06:22.896Z,-0.11
2023-03-15T20:08:53.357Z,-0.30
2023-03-15T20:11:25.538Z,-0.37
2023-03-15T20:13:58.416Z,-0.38
2023-03-15T20:16:29.107Z,-0.51
2023-03-15T20:18:59.750Z,-0.50
2023-03-15T20:21:30.680Z,-0.45
2023-03-15T20:24:01.385Z,-0.49
2023-03-15T20:26:32.038Z,-0.51
2023-03-15T20:29:05.123Z,-0.38
2023-03-15T20:31:35.827Z,-0.32
2023-03-15T20:34:06.128Z,-0.24
2023-03-15T20:36:36.737Z,-0.31
2023-03-15T20:39:08.710Z,-0.36
2023-03-15T20:41:39.216Z,-0.40
2023-03-15T20:44:12.766Z,-0.36
2023-03-15T20:46:44.127Z,-0.41
2023-03-15T20:49:17.510Z,-0.51
2023-03-15T20:51:48.122Z,-0.56
2023-03-15T20:54:18.411Z,-0.61
2023-03-15T20:56:52.907Z,-0.66
2023-03-15T20:59:25.900Z,-0.72
2023-03-15T21:01:56.254Z,-0.79
2023-03-15T21:04:27.941Z,-0.73
2023-03-15T21:07:04.489Z,-0.80
2023-03-15T21:09:35.729Z,-0.83
2023-03-15T21:12:08.405Z,-0.69
2023-03-15T21:14:41.468Z,-0.63
2023-03-15T21:17:13.402Z,-0.48
2023-03-15T21:19:44.660Z,-0.68
2023-03-15T21:22:15.287Z,-0.64
2023-03-15T21:24:55.155Z,-0.74
2023-03-15T21:27:26.644Z,-0.84
2023-03-15T21:29:59.556Z,-0.88
2023-03-15T21:32:29.887Z,-0.99
2023-03-15T21:35:00.334Z,-1.04
2023-03-15T21:37:30.810Z,-1.18
2023-03-15T21:40:01.174Z,-1.19
2023-03-15T21:42:32.325Z,-1.06
2023-03-15T21:45:07.989Z,-1.01
2023-03-15T21:47:38.749Z,-0.79
2023-03-15T21:50:11.539Z,-0.99
2023-03-15T21:52:42.278Z,-1.10
2023-03-15T21:55:16.056Z,-1.02
2023-03-15T21:57:47.218Z,-0.95
2023-03-15T22:00:20.698Z,-0.89
2023-03-15T22:02:55.708Z,-1.09
2023-03-15T22:05:28.034Z,-1.12
2023-03-15T22:07:58.373Z,-1.14
2023-03-15T22:10:29.191Z,-1.06
2023-03-15T22:12:59.644Z,-0.91
2023-03-15T22:15:30.118Z,-0.93
2023-03-15T22:18:03.253Z,-0.93
2023-03-15T22:20:38.020Z,-0.78
2023-03-15T22:23:08.777Z,-0.82
2023-03-15T22:25:41.224Z,-0.99
2023-03-15T22:28:11.912Z,-1.06
2023-03-15T22:30:42.915Z,-1.18
2023-03-15T22:33:16.053Z,-1.32
2023-03-15T22:35:46.874Z,-1.37
2023-03-15T22:38:17.432Z,-1.38
2023-03-15T22:40:48.068Z,-1.42
2023-03-15T22:43:18.433Z,-1.46
2023-03-15T22:45:48.970Z,-1.50
2023-03-15T22:48:23.078Z,-1.45
2023-03-15T22:50:58.894Z,-1.38
2023-03-15T22:53:30.117Z,-1.50
2023-03-15T22:56:00.932Z,-1.51
2023-03-15T22:58:31.480Z,-1.43
2023-03-15T23:01:02.302Z,-1.47
2023-03-15T23:03:35.576Z,-1.47
2023-03-15T23:06:06.134Z,-1.35
2023-03-15T23:08:36.586Z,-1.45
2023-03-15T23:11:06.930Z,-1.51
2023-03-15T23:13:37.455Z,-1.17
2023-03-15T23:16:08.365Z,-0.97
2023-03-15T23:18:42.179Z,-0.69
2023-03-15T23:21:13.707Z,-0.51
2023-03-15T23:23:45.337Z,-0.53
2023-03-15T23:26:16.726Z,-0.70
2023-03-15T23:28:47.007Z,-0.82
2023-03-15T23:31:18.202Z,-0.78
2023-03-15T23:33:51.206Z,-0.60
2023-03-15T23:36:21.552Z,-0.65
2023-03-15T23:38:53.640Z,-0.87
2023-03-15T23:41:24.535Z,-1.02
2023-03-15T23:43:54.905Z,-0.72
2023-03-15T23:46:25.745Z,-0.77
2023-03-15T23:48:58.898Z,-0.98
2023-03-15T23:51:29.197Z,-0.91
2023-03-15T23:53:59.661Z,-0.79
2023-03-15T23:56:30.466Z,-0.79
2023-03-15T23:59:01.602Z,-0.84
